Time;durP1;ratioP1;P1;durP2;ratioP2;P2;SDS_P1;SDS_P2;PMS_P1;PMS_P2;Temp;Humidity;BMP_temperature;BMP_pressure;BME280_temperature;BME280_humidity;BME280_pressure;Samples;Min_cycle;Max_cycle;Signal;HPM_P1;HPM_P2
2023/08/13 00:02:08;;;;;;;12.05;2.78;;;;;;;16.34;100.00;101575.81;5293573;28;20119;-68
2023/08/13 00:04:40;;;;;;;9.57;2.90;;;;;;;16.07;100.00;101574.63;5296004;28;20514;-68
2023/08/13 00:07:11;;;;;;;9.70;2.65;;;;;;;16.10;100.00;101570.78;5293314;28;20019;-67
2023/08/13 00:09:42;;;;;;;8.77;3.10;;;;;;;16.10;100.00;101571.63;5292348;28;20027;-68
2023/08/13 00:12:14;;;;;;;7.60;2.83;;;;;;;16.08;100.00;101573.63;5292150;28;20031;-67
2023/08/13 00:14:45;;;;;;;6.45;2.65;;;;;;;16.04;100.00;101561.41;5291126;28;20446;-68
2023/08/13 00:17:17;;;;;;;10.93;3.20;;;;;;;16.04;100.00;101574.88;5292897;28;20039;-68
2023/08/13 00:19:48;;;;;;;8.90;3.33;;;;;;;16.15;100.00;101569.41;5293205;28;20489;-68
2023/08/13 00:22:21;;;;;;;12.70;3.38;;;;;;;16.00;100.00;101573.44;5291324;28;20042;-67
2023/08/13 00:24:54;;;;;;;10.65;2.90;;;;;;;16.00;100.00;101574.28;5292498;28;20028;-68
2023/08/13 00:27:25;;;;;;;9.13;3.65;;;;;;;16.03;100.00;101565.09;5293005;28;20028;-67
2023/08/13 00:29:57;;;;;;;10.27;3.30;;;;;;;16.10;100.00;101576.19;5289881;28;20046;-68
2023/08/13 00:32:28;;;;;;;10.68;3.15;;;;;;;15.93;100.00;101561.50;5290771;28;20027;-68
2023/08/13 00:34:59;;;;;;;13.15;4.00;;;;;;;15.93;100.00;101569.59;5282578;28;20032;-67
2023/08/13 00:37:31;;;;;;;10.18;3.30;;;;;;;15.94;100.00;101568.63;5287420;28;20039;-67
2023/08/13 00:40:04;;;;;;;10.25;2.97;;;;;;;15.84;100.00;101561.34;5290106;28;20598;-68
2023/08/13 00:42:35;;;;;;;12.60;3.33;;;;;;;15.86;100.00;101559.38;5288895;28;20130;-68
2023/08/13 00:45:07;;;;;;;11.50;3.08;;;;;;;15.91;100.00;101567.03;5285348;28;20475;-68
2023/08/13 00:47:38;;;;;;;13.68;3.40;;;;;;;15.89;100.00;101566.31;5290460;28;20390;-68
2023/08/13 00:50:11;;;;;;;11.75;3.50;;;;;;;15.80;100.00;101561.72;5286794;28;20474;-68
2023/08/13 00:52:43;;;;;;;9.13;2.95;;;;;;;15.79;100.00;101557.34;5282832;28;20023;-68
2023/08/13 00:55:14;;;;;;;10.02;2.88;;;;;;;15.84;100.00;101560.50;5287955;28;20034;-68
2023/08/13 00:57:46;;;;;;;12.38;3.08;;;;;;;15.84;100.00;101561.34;5295444;28;20023;-68
2023/08/13 01:00:18;;;;;;;10.73;3.00;;;;;;;15.85;100.00;101557.66;5292459;28;20490;-68
2023/08/13 01:02:49;;;;;;;8.98;2.65;;;;;;;15.71;100.00;101560.66;5290742;28;20345;-68
2023/08/13 01:05:27;;;;;;;9.88;2.72;;;;;;;15.69;100.00;101560.78;5292955;28;20125;-68
2023/08/13 01:08:03;;;;;;;9.68;3.13;;;;;;;15.77;100.00;101552.09;5293295;28;20031;-68
2023/08/13 01:10:36;;;;;;;12.68;3.00;;;;;;;15.65;100.00;101561.22;5288039;28;20027;-68
2023/08/13 01:13:16;;;;;;;8.27;2.83;;;;;;;15.74;100.00;101554.19;5293471;28;20043;-68
2023/08/13 01:15:51;;;;;;;10.30;3.10;;;;;;;15.66;100.00;101560.22;5289937;28;20032;-68
2023/08/13 01:18:24;;;;;;;10.65;2.80;;;;;;;15.60;100.00;101566.13;5289195;28;20078;-68
2023/08/13 01:20:56;;;;;;;16.75;3.70;;;;;;;15.58;100.00;101563.56;5290719;28;20097;-68
2023/08/13 01:23:27;;;;;;;9.00;2.95;;;;;;;15.75;100.00;101569.38;5288912;28;20461;-68
2023/08/13 01:26:07;;;;;;;8.13;2.97;;;;;;;15.61;100.00;101568.69;5289165;28;20030;-68
2023/08/13 01:28:49;;;;;;;10.30;3.40;;;;;;;15.62;100.00;101569.53;5286889;28;20043;-68
2023/08/13 01:31:35;;;;;;;9.27;2.72;;;;;;;15.56;100.00;101562.84;5281981;28;20047;-67
2023/08/13 01:34:07;;;;;;;9.88;3.08;;;;;;;15.56;100.00;101568.22;5289779;28;20527;-67
2023/08/13 01:36:39;;;;;;;9.90;3.33;;;;;;;15.59;100.00;101573.34;5286817;28;20463;-68
2023/08/13 01:39:11;;;;;;;10.27;2.53;;;;;;;15.48;100.00;101571.56;5291095;28;20027;-67
2023/08/13 01:41:50;;;;;;;10.50;3.08;;;;;;;15.54;100.00;101578.25;5285081;28;20032;-68
2023/08/13 01:44:22;;;;;;;6.05;2.75;;;;;;;15.52;100.00;101574.84;5288062;28;20039;-68
2023/08/13 01:46:53;;;;;;;9.20;2.47;;;;;;;15.58;100.00;101568.09;5281860;28;20039;-68
2023/08/13 01:49:25;;;;;;;10.52;3.00;;;;;;;15.47;100.00;101574.38;5288970;28;20082;-68
2023/08/13 01:51:56;;;;;;;7.97;2.60;;;;;;;15.38;100.00;101570.66;5279880;28;20102;-68
2023/08/13 01:54:27;;;;;;;8.60;2.30;;;;;;;15.35;100.00;101572.75;5278510;28;20047;-68
2023/08/13 01:56:59;;;;;;;9.90;3.13;;;;;;;15.33;100.00;101567.50;5289636;28;20027;-68
2023/08/13 01:59:30;;;;;;;9.85;2.90;;;;;;;15.31;100.00;101572.16;5289971;28;20032;-67
2023/08/13 02:02:02;;;;;;;11.18;2.90;;;;;;;15.29;100.00;101566.06;5285884;28;20047;-68
2023/08/13 02:04:33;;;;;;;7.97;2.53;;;;;;;15.38;100.00;101573.34;5293056;28;20027;-67
2023/08/13 02:07:04;;;;;;;9.35;2.40;;;;;;;15.29;100.00;101566.91;5290789;28;20028;-67
2023/08/13 02:09:36;;;;;;;10.82;3.35;;;;;;;15.24;100.00;101571.81;5289008;28;20039;-67
2023/08/13 02:12:07;;;;;;;12.93;3.22;;;;;;;15.18;100.00;101560.75;5293810;28;20020;-67
2023/08/13 02:14:39;;;;;;;9.40;2.65;;;;;;;15.16;100.00;101555.50;5288562;28;20028;-68
2023/08/13 02:17:12;;;;;;;10.70;3.00;;;;;;;15.20;100.00;101561.47;5290157;28;20067;-67
2023/08/13 02:19:44;;;;;;;9.52;3.00;;;;;;;15.22;100.00;101554.13;5291672;28;20054;-67
2023/08/13 02:22:15;;;;;;;7.00;2.45;;;;;;;15.25;100.00;101560.09;5290993;28;20024;-68
2023/08/13 02:24:47;;;;;;;10.82;2.67;;;;;;;15.17;100.00;101553.66;5286903;28;20107;-68
2023/08/13 02:27:18;;;;;;;13.18;2.90;;;;;;;15.17;100.00;101553.66;5288365;28;20021;-68
2023/08/13 02:29:50;;;;;;;9.02;2.30;;;;;;;15.26;100.00;101558.25;5287420;28;20032;-68
2023/08/13 02:32:21;;;;;;;9.00;2.50;;;;;;;15.16;100.00;101551.97;5287324;28;20132;-68
2023/08/13 02:34:52;;;;;;;6.82;2.25;;;;;;;15.19;100.00;101554.41;5287846;28;20036;-68
2023/08/13 02:37:23;;;;;;;10.43;3.05;;;;;;;15.06;100.00;101552.72;5288137;28;20069;-68
2023/08/13 02:39:55;;;;;;;10.35;3.25;;;;;;;15.13;100.00;101553.09;5290842;28;20032;-68
2023/08/13 02:42:26;;;;;;;8.20;2.45;;;;;;;15.10;100.00;101547.94;5293010;28;20055;-68
2023/08/13 02:44:58;;;;;;;8.40;2.47;;;;;;;15.05;100.00;101553.72;5289078;28;20195;-68
2023/08/13 02:47:29;;;;;;;8.48;2.53;;;;;;;15.06;100.00;101550.03;5290292;28;20152;-68
2023/08/13 02:50:00;;;;;;;8.80;2.50;;;;;;;15.06;100.00;101550.03;5283142;28;20092;-68
2023/08/13 02:52:32;;;;;;;11.07;2.67;;;;;;;14.98;100.00;101551.69;5290547;28;20105;-68
2023/08/13 02:55:04;;;;;;;13.30;2.83;;;;;;;15.08;100.00;101549.91;5286185;28;20497;-68
2023/08/13 02:57:35;;;;;;;7.63;3.00;;;;;;;15.03;100.00;101549.44;5289246;28;20418;-68
2023/08/13 03:00:08;;;;;;;10.23;3.20;;;;;;;14.99;100.00;101546.16;5284870;28;20052;-67
2023/08/13 03:02:39;;;;;;;9.10;2.75;;;;;;;14.94;100.00;101545.72;5288574;28;20027;-68
2023/08/13 03:05:10;;;;;;;8.60;2.60;;;;;;;15.00;100.00;101544.34;5292670;28;20035;-68
2023/08/13 03:07:42;;;;;;;9.55;2.80;;;;;;;14.87;100.00;101548.03;5292549;28;20027;-68
2023/08/13 03:10:13;;;;;;;7.20;2.60;;;;;;;14.86;100.00;101549.03;5288109;28;20020;-68
2023/08/13 03:12:45;;;;;;;7.75;2.72;;;;;;;14.83;100.00;101551.97;5292180;28;20024;-68
2023/08/13 03:15:16;;;;;;;8.98;2.72;;;;;;;14.77;100.00;101554.34;5286666;28;20099;-68
2023/08/13 03:17:47;;;;;;;11.27;2.83;;;;;;;14.85;100.00;101544.63;5291826;28;20024;-68
2023/08/13 03:20:19;;;;;;;11.15;3.33;;;;;;;14.80;100.00;101551.38;5288528;28;20432;-68
2023/08/13 03:22:50;;;;;;;9.90;2.90;;;;;;;14.89;100.00;101547.94;5297047;28;20067;-68
2023/08/13 03:25:22;;;;;;;7.78;3.05;;;;;;;14.81;100.00;101542.34;5287469;28;20512;-68
2023/08/13 03:27:53;;;;;;;9.38;2.55;;;;;;;14.86;100.00;101545.47;5292663;28;20956;-67
2023/08/13 03:30:24;;;;;;;9.73;2.75;;;;;;;14.76;100.00;101556.13;5289700;28;20201;-66
2023/08/13 03:32:56;;;;;;;10.40;2.92;;;;;;;14.79;100.00;101549.69;5294247;28;20035;-67
2023/08/13 03:35:27;;;;;;;8.98;2.72;;;;;;;14.78;100.00;101556.03;5292265;28;20075;-68
2023/08/13 03:37:58;;;;;;;9.20;3.05;;;;;;;14.83;100.00;101546.59;5294760;28;20656;-68
2023/08/13 03:40:30;;;;;;;6.00;2.40;;;;;;;14.75;100.00;101548.22;5292480;28;20089;-67
2023/08/13 03:43:02;;;;;;;10.02;2.85;;;;;;;14.75;100.00;101543.72;5292222;28;20028;-67
2023/08/13 03:45:33;;;;;;;10.05;3.00;;;;;;;14.83;100.00;101537.69;5291600;28;20020;-68
2023/08/13 03:48:04;;;;;;;9.02;2.80;;;;;;;14.83;100.00;101545.75;5291278;28;20470;-67
2023/08/13 03:50:43;;;;;;;9.30;2.83;;;;;;;14.81;100.00;101553.09;5290837;28;20123;-67
2023/08/13 03:53:15;;;;;;;11.02;2.75;;;;;;;14.89;100.00;101547.94;5288417;28;20062;-68
2023/08/13 03:55:46;;;;;;;11.52;3.22;;;;;;;14.86;100.00;101545.47;5291887;28;20111;-67
2023/08/13 03:58:17;;;;;;;9.93;2.83;;;;;;;14.85;100.00;101549.16;5297729;28;20096;-67
2023/08/13 04:00:49;;;;;;;8.70;2.55;;;;;;;14.89;100.00;101545.22;5286969;28;20051;-67
2023/08/13 04:03:20;;;;;;;11.00;2.95;;;;;;;14.81;100.00;101551.25;5289041;28;20535;-68
2023/08/13 04:05:52;;;;;;;8.98;2.88;;;;;;;14.87;100.00;101553.41;5287502;28;20123;-67
2023/08/13 04:08:23;;;;;;;8.95;3.55;;;;;;;14.87;100.00;101561.47;5291780;28;20055;-68
2023/08/13 04:10:55;;;;;;;8.30;2.90;;;;;;;14.75;100.00;101567.03;5289139;28;20047;-67
2023/08/13 04:13:26;;;;;;;9.07;3.45;;;;;;;14.88;100.00;101565.00;5286974;28;20111;-68
2023/08/13 04:15:58;;;;;;;11.65;3.30;;;;;;;14.84;100.00;101574.31;5296972;28;20032;-68
2023/08/13 04:18:29;;;;;;;11.07;2.90;;;;;;;14.74;100.00;101557.25;5296257;28;20085;-67
2023/08/13 04:21:01;;;;;;;8.80;3.15;;;;;;;14.82;100.00;101570.91;5291269;28;20036;-67
2023/08/13 04:23:32;;;;;;;8.00;3.00;;;;;;;14.82;100.00;101565.53;5294914;28;20032;-68
2023/08/13 04:26:04;;;;;;;9.82;3.30;;;;;;;14.82;100.00;101570.91;5294576;28;20423;-67
2023/08/13 04:28:35;;;;;;;11.00;3.20;;;;;;;14.78;100.00;101569.44;5292187;28;20028;-68
2023/08/13 04:31:06;;;;;;;9.23;3.33;;;;;;;14.82;100.00;101569.09;5286425;28;20024;-68
2023/08/13 04:33:38;;;;;;;11.18;3.20;;;;;;;14.88;100.00;101563.19;5290654;28;20037;-68
2023/08/13 04:36:09;;;;;;;9.75;3.45;;;;;;;14.85;100.00;101563.44;5294031;28;20028;-68
2023/08/13 04:38:40;;;;;;;10.85;2.95;;;;;;;14.76;100.00;101557.97;5286176;28;20534;-68
2023/08/13 04:41:12;;;;;;;10.18;3.35;;;;;;;14.80;100.00;101564.81;5293071;28;20367;-68
2023/08/13 04:43:43;;;;;;;9.65;3.75;;;;;;;14.80;100.00;101562.13;5289533;28;20035;-67
2023/08/13 04:46:15;;;;;;;8.18;3.17;;;;;;;14.84;100.00;101559.06;5292217;28;20046;-67
2023/08/13 04:48:47;;;;;;;8.50;2.83;;;;;;;14.89;100.00;101567.56;5283285;28;20035;-67
2023/08/13 04:51:19;;;;;;;9.02;2.85;;;;;;;14.78;100.00;101572.13;5294100;28;20027;-68
2023/08/13 04:53:50;;;;;;;10.45;3.30;;;;;;;14.90;100.00;101576.50;5289854;28;20482;-67
2023/08/13 04:56:21;;;;;;;9.85;3.00;;;;;;;14.86;100.00;101572.34;5291435;28;20036;-67
2023/08/13 04:58:53;;;;;;;11.32;3.42;;;;;;;14.89;100.00;101570.25;5292720;28;20067;-67
2023/08/13 05:01:25;;;;;;;13.75;3.58;;;;;;;14.93;100.00;101564.66;5292617;28;20097;-67
2023/08/13 05:03:56;;;;;;;10.70;3.20;;;;;;;14.88;100.00;101570.38;5293887;28;20031;-67
2023/08/13 05:06:27;;;;;;;9.95;3.85;;;;;;;14.99;100.00;101566.81;5296687;28;20063;-67
2023/08/13 05:08:59;;;;;;;9.32;3.17;;;;;;;14.95;100.00;101555.47;5290383;28;20147;-67
2023/08/13 05:11:30;;;;;;;9.48;3.25;;;;;;;14.89;100.00;101554.13;5291751;28;20496;-67
2023/08/13 05:14:02;;;;;;;8.93;3.42;;;;;;;14.84;100.00;101553.69;5286221;28;20323;-67
2023/08/13 05:16:33;;;;;;;10.10;3.65;;;;;;;14.94;100.00;101558.28;5293104;28;20039;-67
2023/08/13 05:19:05;;;;;;;7.78;3.45;;;;;;;15.00;100.00;101561.31;5283898;28;20162;-67
2023/08/13 05:21:36;;;;;;;10.13;3.28;;;;;;;15.04;100.00;101562.75;5295937;28;20030;-68
2023/08/13 05:24:07;;;;;;;11.98;3.65;;;;;;;15.10;100.00;101558.72;5292184;28;21580;-68
2023/08/13 05:26:39;;;;;;;9.30;3.45;;;;;;;15.15;100.00;101566.38;5287154;28;20442;-67
2023/08/13 05:29:10;;;;;;;11.45;3.53;;;;;;;15.19;100.00;101573.22;5287218;28;20032;-67
2023/08/13 05:31:42;;;;;;;11.70;3.90;;;;;;;15.17;100.00;101567.09;5290782;28;20028;-68
2023/08/13 05:34:13;;;;;;;10.10;3.75;;;;;;;15.18;100.00;101572.34;5295689;28;20118;-68
2023/08/13 05:36:44;;;;;;;10.50;3.33;;;;;;;15.10;100.00;101573.00;5288903;28;20429;-67
2023/08/13 05:39:16;;;;;;;10.50;3.42;;;;;;;15.13;100.00;101571.91;5287878;28;20510;-67
2023/08/13 05:41:47;;;;;;;9.90;3.83;;;;;;;15.21;100.00;101576.63;5290390;28;20024;-67
2023/08/13 05:44:19;;;;;;;10.27;3.78;;;;;;;15.28;100.00;101575.09;5292935;28;20080;-68
2023/08/13 05:46:50;;;;;;;8.00;3.75;;;;;;;15.31;100.00;101577.53;5295896;28;20359;-67
2023/08/13 05:49:22;;;;;;;10.52;3.40;;;;;;;15.31;100.00;101580.22;5284433;28;20058;-68
2023/08/13 05:51:53;;;;;;;11.52;3.88;;;;;;;15.26;100.00;101574.38;5278831;28;20288;-67
2023/08/13 05:54:24;;;;;;;10.77;3.45;;;;;;;15.28;100.00;101572.41;5283446;28;20028;-68
2023/08/13 05:56:56;;;;;;;9.27;3.35;;;;;;;15.31;100.00;101577.53;5282238;28;20104;-68
2023/08/13 05:59:27;;;;;;;11.15;3.30;;;;;;;15.40;100.00;101579.47;5287274;28;20361;-69
2023/08/13 06:01:58;;;;;;;8.82;3.83;;;;;;;15.40;100.00;101587.53;5289093;28;20051;-68
2023/08/13 06:04:34;;;;;;;10.40;3.20;;;;;;;15.38;100.00;101586.81;5288843;28;20111;-68
2023/08/13 06:07:06;;;;;;;10.20;2.95;;;;;;;15.49;100.00;101580.50;5291710;28;20032;-68
2023/08/13 06:09:37;;;;;;;10.85;3.78;;;;;;;15.55;100.00;101589.88;5280763;28;20028;-68
2023/08/13 06:12:08;;;;;;;10.48;3.45;;;;;;;15.57;100.00;101575.31;5284515;28;20130;-67
2023/08/13 06:14:40;;;;;;;12.80;3.35;;;;;;;15.63;100.00;101582.00;5286545;28;20032;-67
2023/08/13 06:17:11;;;;;;;13.40;3.30;;;;;;;15.76;100.00;101577.31;5288381;28;20639;-67
2023/08/13 06:19:42;;;;;;;7.13;2.85;;;;;;;15.88;100.00;101580.75;5286812;28;20465;-67
2023/08/13 06:22:14;;;;;;;12.48;3.78;;;;;;;15.92;100.00;101576.81;5285763;28;20462;-67
2023/08/13 06:24:45;;;;;;;13.10;3.00;;;;;;;15.98;100.00;101583.50;5288920;28;20159;-67
2023/08/13 06:27:17;;;;;;;8.27;3.15;;;;;;;16.06;100.00;101578.28;5285460;28;20032;-68
2023/08/13 06:29:48;;;;;;;7.80;2.60;;;;;;;16.20;100.00;101577.06;5286635;28;20402;-68
2023/08/13 06:32:20;;;;;;;11.77;3.33;;;;;;;16.34;100.00;101582.09;5287737;28;20016;-68
2023/08/13 06:34:51;;;;;;;10.00;2.65;;;;;;;16.30;100.00;101572.56;5292050;28;20034;-68
2023/08/13 06:37:22;;;;;;;11.13;3.00;;;;;;;16.45;100.00;101581.97;5289081;28;20034;-68
2023/08/13 06:39:54;;;;;;;10.10;2.83;;;;;;;16.51;100.00;101574.31;5289315;28;20024;-68
2023/08/13 06:42:25;;;;;;;8.40;2.53;;;;;;;16.68;100.00;101581.72;5285926;28;20043;-68
2023/08/13 06:44:56;;;;;;;9.85;2.90;;;;;;;16.76;100.00;101581.91;5284940;28;20059;-67
2023/08/13 06:47:28;;;;;;;7.90;2.40;;;;;;;16.84;100.00;101578.53;5292878;28;20123;-67
2023/08/13 06:49:59;;;;;;;8.63;2.80;;;;;;;16.92;100.00;101572.44;5289009;28;20024;-67
2023/08/13 06:52:30;;;;;;;12.05;2.97;;;;;;;17.00;100.00;101583.34;5293908;28;20024;-67
2023/08/13 06:55:02;;;;;;;14.85;3.33;;;;;;;17.09;100.00;101581.66;5294920;28;20390;-67
2023/08/13 06:57:33;;;;;;;10.98;3.28;;;;;;;17.17;100.00;101573.72;5293159;28;20035;-67
2023/08/13 07:00:05;;;;;;;9.98;2.85;;;;;;;17.30;100.00;101574.28;5291528;28;20117;-68
2023/08/13 07:02:37;;;;;;;7.28;2.78;;;;;;;17.42;100.00;101574.97;5296085;28;20106;-68
2023/08/13 07:05:11;;;;;;;8.65;2.40;;;;;;;17.46;100.00;101568.28;5294481;28;20419;-67
2023/08/13 07:07:42;;;;;;;9.75;2.78;;;;;;;17.58;100.00;101563.56;5296644;28;20024;-68
2023/08/13 07:10:13;;;;;;;8.73;2.50;;;;;;;17.73;100.00;101561.25;5282926;28;20628;-68
2023/08/13 07:12:45;;;;;;;9.57;3.05;;;;;;;17.85;100.00;101560.09;5290310;28;20044;-68
2023/08/13 07:15:16;;;;;;;9.88;2.35;;;;;;;17.85;100.00;101562.78;5285751;28;20318;-68
2023/08/13 07:17:47;;;;;;;11.27;2.70;;;;;;;18.01;100.00;101570.28;5291716;28;20553;-68
2023/08/13 07:20:19;;;;;;;13.73;3.55;;;;;;;18.03;100.00;101576.38;5297333;28;20028;-68
2023/08/13 07:22:50;;;;;;;9.27;2.67;;;;;;;18.12;100.00;101567.41;5288226;28;20462;-68
2023/08/13 07:25:22;;;;;;;8.77;2.75;;;;;;;18.25;100.00;101558.09;5291522;28;20102;-68
2023/08/13 07:27:54;;;;;;;7.68;2.13;;;;;;;18.38;100.00;101564.84;5294633;28;20047;-68
2023/08/13 07:30:25;;;;;;;8.68;2.53;;;;;;;18.39;100.00;101571.09;5289648;28;20090;-68
2023/08/13 07:32:56;;;;;;;9.40;2.55;;;;;;;18.57;100.00;101568.44;5288752;28;20056;-68
2023/08/13 07:35:28;;;;;;;11.23;2.60;;;;;;;18.61;100.00;101559.84;5290264;28;20029;-68
2023/08/13 07:37:59;;;;;;;10.18;2.83;;;;;;;18.74;100.00;101562.19;5289506;28;20465;-69
2023/08/13 07:40:31;;;;;;;11.52;2.63;;;;;;;18.94;100.00;101560.19;5289964;28;20406;-68
2023/08/13 07:43:02;;;;;;;6.97;1.98;;;;;;;19.13;100.00;101563.75;5296483;28;20024;-68
2023/08/13 07:45:34;;;;;;;8.45;2.47;;;;;;;19.05;100.00;101551.00;5293471;28;20461;-68
2023/08/13 07:48:05;;;;;;;8.43;2.00;;;;;;;19.15;100.00;101557.19;5292144;28;20389;-68
2023/08/13 07:50:37;;;;;;;10.85;2.35;;;;;;;19.30;100.00;101557.47;5290959;28;20021;-68
2023/08/13 07:53:09;;;;;;;10.10;2.33;;;;;;;19.42;100.00;101557.22;5289702;28;20114;-68
2023/08/13 07:55:40;;;;;;;8.18;1.98;;;;;;;19.54;100.00;101555.94;5295554;28;20039;-68
2023/08/13 07:58:14;;;;;;;8.52;1.98;;;;;;;19.65;100.00;101544.84;5296584;28;20541;-68
2023/08/13 08:00:45;;;;;;;9.90;2.40;;;;;;;19.77;100.00;101551.75;5292371;28;20040;-69
2023/08/13 08:03:17;;;;;;;8.70;2.00;;;;;;;19.81;100.00;101546.00;5288853;28;20130;-69
2023/08/13 08:05:49;;;;;;;8.25;2.10;;;;;;;19.88;100.00;101542.47;5291982;28;20024;-68
2023/08/13 08:08:21;;;;;;;9.20;2.10;;;;;;;20.01;100.00;101542.03;5293790;28;20035;-68
2023/08/13 08:10:52;;;;;;;6.78;1.83;;;;;;;20.09;100.00;101543.94;5290928;28;20026;-68
2023/08/13 08:13:23;;;;;;;7.60;2.10;;;;;;;20.13;100.00;101551.56;5293101;28;20089;-68
2023/08/13 08:15:55;;;;;;;9.57;2.17;;;;;;;20.16;100.00;101550.41;5291804;28;20035;-68
2023/08/13 08:18:28;;;;;;;8.88;2.20;;;;;;;20.17;100.00;101552.97;5294910;28;20506;-68
2023/08/13 08:20:59;;;;;;;6.88;1.88;;;;;;;20.23;100.00;101546.03;5295518;28;20591;-68
2023/08/13 08:23:32;;;;;;;9.45;2.47;;;;;;;20.34;100.00;101555.72;5292046;28;20027;-68
2023/08/13 08:26:04;;;;;;;8.90;1.98;;;;;;;20.34;100.00;101544.88;5294280;28;20059;-68
2023/08/13 08:28:35;;;;;;;8.80;2.85;;;;;;;20.34;100.00;101542.16;5294133;28;20566;-68
2023/08/13 08:31:07;;;;;;;8.30;2.10;;;;;;;20.33;100.00;101543.19;5293154;28;20440;-68
2023/08/13 08:33:38;;;;;;;9.32;2.10;;;;;;;20.40;100.00;101543.38;5292055;28;20077;-68
2023/08/13 08:36:10;;;;;;;8.20;2.20;;;;;;;20.48;100.00;101540.66;5295302;28;20028;-68
2023/08/13 08:38:41;;;;;;;8.80;2.58;;;;;;;20.53;100.00;101541.88;5291206;28;20073;-68
2023/08/13 08:41:15;;;;;;;8.07;2.38;;;;;;;20.60;100.00;101542.09;5291666;28;20476;-69
2023/08/13 08:43:48;;;;;;;14.15;2.20;;;;;;;20.66;100.00;101544.16;5296915;28;20029;-69
2023/08/13 08:46:20;;;;;;;8.52;1.95;;;;;;;20.70;100.00;101533.81;5294124;28;20451;-68
2023/08/13 08:48:51;;;;;;;8.65;2.70;;;;;;;20.84;100.00;101535.00;5289831;28;20027;-68
2023/08/13 08:51:23;;;;;;;6.93;2.15;;;;;;;20.85;100.00;101539.44;5294812;28;20497;-69
2023/08/13 08:53:57;;;;;;;6.95;2.03;;;;;;;21.03;100.00;101541.97;5290340;28;20094;-68
2023/08/13 08:56:28;;;;;;;7.25;1.70;;;;;;;21.10;100.00;101537.56;5295720;28;20749;-68
2023/08/13 08:59:00;;;;;;;6.47;1.90;;;;;;;21.14;100.00;101526.19;5288134;28;20033;-68
2023/08/13 09:01:33;;;;;;;8.35;1.92;;;;;;;21.25;100.00;101525.00;5291338;28;20067;-68
2023/08/13 09:04:04;;;;;;;9.68;2.45;;;;;;;21.31;100.00;101518.91;5291327;28;20474;-68
2023/08/13 09:06:59;;;;;;;6.85;1.95;;;;;;;21.38;100.00;101518.19;5293539;28;20036;-68
2023/08/13 09:09:31;;;;;;;5.90;1.92;;;;;;;21.38;100.00;101516.31;5287925;28;20134;-68
2023/08/13 09:12:02;;;;;;;9.43;2.22;;;;;;;21.42;100.00;101516.84;5283415;28;20308;-69
2023/08/13 09:14:33;;;;;;;7.07;1.88;;;;;;;21.43;100.00;101513.13;5284996;28;20038;-68
2023/08/13 09:17:10;;;;;;;10.57;2.30;;;;;;;21.49;100.00;101515.16;5283594;28;20032;-68
2023/08/13 09:19:41;;;;;;;8.90;1.90;;;;;;;21.53;100.00;101503.81;5289843;28;20088;-68
2023/08/13 09:22:12;;;;;;;7.32;1.90;;;;;;;21.57;100.00;101509.69;5293230;28;20033;-69
2023/08/13 09:24:46;;;;;;;6.88;1.98;;;;;;;21.62;100.00;101509.19;5292547;28;20347;-68
2023/08/13 09:27:18;;;;;;;;;;;;;;;21.83;100.00;101509.47;5294131;28;20028;-69
2023/08/13 09:29:53;;;;;;;8.52;1.95;;;;;;;21.66;100.00;101503.22;5290369;28;20275;-69
2023/08/13 09:32:27;;;;;;;8.95;2.33;;;;;;;21.62;100.00;101498.34;5294713;28;20055;-68
2023/08/13 09:35:03;;;;;;;6.75;2.00;;;;;;;21.76;100.00;101496.75;5283343;28;20446;-68
2023/08/13 09:37:34;;;;;;;9.88;2.20;;;;;;;21.81;100.00;101486.22;5285631;28;20496;-69
2023/08/13 09:40:06;;;;;;;8.20;2.42;;;;;;;21.80;100.00;101485.34;5290205;28;20035;-67
2023/08/13 09:42:38;;;;;;;8.10;2.00;;;;;;;21.86;100.00;101491.97;5289635;28;20482;-68
2023/08/13 09:45:10;;;;;;;5.72;1.83;;;;;;;21.82;100.00;101477.91;5288191;28;20030;-68
2023/08/13 09:47:45;;;;;;;5.28;1.80;;;;;;;21.96;100.00;101478.16;5287882;28;20028;-68
2023/08/13 09:50:17;;;;;;;8.38;2.17;;;;;;;21.99;100.00;101481.38;5285750;28;20512;-68
2023/08/13 09:52:50;;;;;;;7.32;2.20;;;;;;;22.01;100.00;101478.47;5290897;28;20478;-68
2023/08/13 09:55:26;;;;;;;9.60;2.33;;;;;;;21.97;100.00;101480.69;5291328;28;20031;-68
2023/08/13 09:58:04;;;;;;;6.85;2.00;;;;;;;21.94;100.00;101467.50;5288788;28;20032;-68
2023/08/13 10:00:35;;;;;;;9.43;2.55;;;;;;;21.98;100.00;101470.72;5288947;28;20040;-68
2023/08/13 10:03:08;;;;;;;6.38;2.10;;;;;;;22.07;100.00;101472.34;5290015;28;20077;-68
2023/08/13 10:05:42;;;;;;;9.95;2.30;;;;;;;22.07;100.00;101466.91;5282008;28;20020;-68
2023/08/13 10:08:15;;;;;;;7.18;2.35;;;;;;;22.07;100.00;101464.19;5289691;28;20292;-68
2023/08/13 10:10:47;;;;;;;7.30;1.95;;;;;;;22.07;100.00;101467.75;5289858;28;20023;-68
2023/08/13 10:13:18;;;;;;;8.27;2.20;;;;;;;22.11;100.00;101471.81;5285708;28;20694;-68
2023/08/13 10:15:50;;;;;;;7.93;2.20;;;;;;;22.20;100.00;101469.03;5286494;28;20012;-68
2023/08/13 10:18:23;;;;;;;9.38;2.15;;;;;;;22.29;100.00;101468.00;5283849;28;20084;-68
2023/08/13 10:20:54;;;;;;;10.13;2.25;;;;;;;22.40;100.00;101470.31;5284896;28;20103;-69
2023/08/13 10:23:29;;;;;;;8.10;2.08;;;;;;;22.49;100.00;101461.09;5287058;28;20510;-68
2023/08/13 10:26:00;;;;;;;8.77;2.25;;;;;;;22.51;100.00;101453.59;5284990;28;20024;-68
2023/08/13 10:28:33;;;;;;;7.63;2.20;;;;;;;22.57;100.00;101462.91;5283899;28;20032;-69
2023/08/13 10:31:23;;;;;;;8.40;2.20;;;;;;;22.64;100.00;101452.13;5284171;28;20082;-68
2023/08/13 10:34:11;;;;;;;7.28;2.40;;;;;;;22.56;100.00;101450.31;5290323;28;20024;-68
2023/08/13 10:36:44;;;;;;;6.32;2.33;;;;;;;22.44;100.00;101452.59;5284320;28;20039;-68
2023/08/13 10:39:34;;;;;;;6.57;2.47;;;;;;;22.51;100.00;101455.44;5286509;28;20849;-69
2023/08/13 10:42:26;;;;;;;7.60;1.88;;;;;;;22.49;100.00;101450.19;5279138;28;20047;-70
2023/08/13 10:45:00;;;;;;;7.80;1.88;;;;;;;22.39;100.00;101452.28;5277522;28;20417;-70
2023/08/13 10:47:37;;;;;;;9.45;2.40;;;;;;;22.36;100.00;101449.97;5285492;28;20031;-72
2023/08/13 10:50:41;;;;;;;6.05;1.88;;;;;;;22.44;100.00;101449.06;5282303;28;20063;-73
2023/08/13 10:53:24;;;;;;;8.48;2.00;;;;;;;22.38;100.00;101442.47;5285688;28;20044;-71
2023/08/13 10:55:59;;;;;;;8.65;2.40;;;;;;;22.36;100.00;101446.38;5288258;28;20028;-73
2023/08/13 10:58:38;;;;;;;7.80;2.20;;;;;;;22.35;100.00;101450.13;5291950;28;20063;-71
2023/08/13 11:01:16;;;;;;;8.07;2.05;;;;;;;22.36;100.00;101446.38;5283324;28;20063;-72
2023/08/13 11:03:52;;;;;;;8.18;2.30;;;;;;;22.42;100.00;101445.66;5286673;28;20024;-72
2023/08/13 11:06:27;;;;;;;9.77;2.35;;;;;;;22.52;100.00;101440.81;5289460;28;20806;-72
2023/08/13 11:08:59;;;;;;;7.82;2.15;;;;;;;22.67;100.00;101438.16;5281322;28;20086;-72
2023/08/13 11:11:30;;;;;;;8.40;2.17;;;;;;;22.76;100.00;101436.19;5281555;28;20032;-74
2023/08/13 11:14:02;;;;;;;9.35;2.47;;;;;;;22.87;100.00;101423.00;5288947;28;20028;-72
2023/08/13 11:16:33;;;;;;;8.63;2.63;;;;;;;23.08;100.00;101429.66;5290190;28;21172;-73
2023/08/13 11:19:05;;;;;;;8.13;2.30;;;;;;;23.13;100.00;101426.34;5286405;28;20032;-75
2023/08/13 11:21:36;;;;;;;11.50;2.40;;;;;;;23.15;100.00;101424.31;5288252;28;20023;-75
2023/08/13 11:24:12;;;;;;;5.65;2.03;;;;;;;23.16;100.00;101426.00;5290932;28;20089;-72
2023/08/13 11:26:43;;;;;;;11.77;2.70;;;;;;;23.07;100.00;101428.81;5284746;28;20482;-74
2023/08/13 11:29:19;;;;;;;13.13;2.75;;;;;;;23.07;100.00;101428.81;5281718;28;20059;-74
2023/08/13 11:31:50;;;;;;;9.43;2.35;;;;;;;22.96;100.00;101433.81;5284441;28;20032;-73
2023/08/13 11:34:22;;;;;;;12.25;2.50;;;;;;;23.05;100.00;101435.44;5286894;28;20073;-74
2023/08/13 11:36:55;;;;;;;7.25;2.10;;;;;;;23.17;100.00;101431.25;5289047;28;20028;-73
2023/08/13 11:39:27;;;;;;;8.27;2.42;;;;;;;23.22;100.00;101425.25;5289885;28;20102;-76